Kemsing, United Kingdom
Current Conditions -  °F | °C
As of 7:50 PM on Tuesday 27 Jan 2015 (Local Time) from EGKB Reporting Station
Broken Clouds Broken Clouds  
Wind Chill: 39°   Ceiling: 2500
Heat Index: 43°   Visibility: 6mi
Dew Point: 34°   Wind: 7mph
Humidity: 70%   Direction: 240°WSW
Pressure: 30.21"   Gusts: NA
Location:  51.31°N, 0.23°E
Report Text: EGKB 271950Z 24006KT 220V280 9999 BKN025 06/01 Q1023
Loading
Personal Weather Stations






























Interactive Weather Map New forecast layout! Learn more

10-Day Weather Forecast

Advertisements
Track Severe Weather on mobile